Time;durP1;ratioP1;P1;durP2;ratioP2;P2;SDS_P1;SDS_P2;PMS_P1;PMS_P2;Temp;Humidity;BMP_temperature;BMP_pressure;BME280_temperature;BME280_humidity;BME280_pressure;Samples;Min_cycle;Max_cycle;Signal;HPM_P1;HPM_P2
2022/03/29 00:01:46;;;;;;;37.03;15.30;;;;;;;;;;5048858;28;20203;-78
2022/03/29 00:04:13;;;;;;;35.07;15.17;;;;;;;;;;5045916;28;20223;-79
2022/03/29 00:06:40;;;;;;;35.20;15.53;;;;;;;;;;5049147;28;20213;-78
2022/03/29 00:09:08;;;;;;;31.57;14.87;;;;;;;;;;5046001;28;20215;-78
2022/03/29 00:11:36;;;;;;;37.07;15.63;;;;;;;;;;5043690;28;20243;-79
2022/03/29 00:14:05;;;;;;;41.10;16.87;;;;;;;;;;5046006;28;20752;-78
2022/03/29 00:16:33;;;;;;;38.70;15.73;;;;;;;;;;5046757;28;20399;-78
2022/03/29 00:19:00;;;;;;;35.17;15.80;;;;;;;;;;5047017;28;20427;-79
2022/03/29 00:21:28;;;;;;;38.60;16.27;;;;;;;;;;5048298;28;20290;-77
2022/03/29 00:23:55;;;;;;;37.30;15.63;;;;;;;;;;5041534;28;20234;-79
2022/03/29 00:26:22;;;;;;;37.50;15.67;;;;;;;;;;5045847;28;20202;-79
2022/03/29 00:28:51;;;;;;;42.03;17.27;;;;;;;;;;5047727;28;20246;-79
2022/03/29 00:31:19;;;;;;;36.97;16.47;;;;;;;;;;5051435;28;20195;-79
2022/03/29 00:33:47;;;;;;;42.37;16.27;;;;;;;;;;5043967;28;20211;-78
2022/03/29 00:36:14;;;;;;;42.20;16.43;;;;;;;;;;5048392;28;20229;-78
2022/03/29 00:38:41;;;;;;;42.50;16.77;;;;;;;;;;5049426;28;20253;-79
2022/03/29 00:41:09;;;;;;;43.50;16.63;;;;;;;;;;5050470;28;20214;-79
2022/03/29 00:43:36;;;;;;;40.57;16.47;;;;;;;;;;5039673;28;20222;-77
2022/03/29 00:46:05;;;;;;;37.70;16.13;;;;;;;;;;5041319;28;20206;-79
2022/03/29 00:48:32;;;;;;;43.27;17.13;;;;;;;;;;5050629;28;20222;-79
2022/03/29 00:50:59;;;;;;;41.93;16.53;;;;;;;;;;5049137;28;20291;-79
2022/03/29 00:53:28;;;;;;;42.23;17.90;;;;;;;;;;5054717;28;20675;-78
2022/03/29 00:55:55;;;;;;;40.77;16.73;;;;;;;;;;5055438;28;20238;-78
2022/03/29 00:58:22;;;;;;;36.90;16.37;;;;;;;;;;5040939;28;20261;-79
2022/03/29 01:00:52;;;;;;;41.77;17.03;;;;;;;;;;5045371;28;20214;-78
2022/03/29 01:03:21;;;;;;;36.70;15.97;;;;;;;;;;5042258;28;20211;-80
2022/03/29 01:05:48;;;;;;;40.20;16.83;;;;;;;;;;5044060;28;20246;-79
2022/03/29 01:08:15;;;;;;;51.80;17.80;;;;;;;;;;5047603;28;20266;-79
2022/03/29 01:10:45;;;;;;;41.70;17.07;;;;;;;;;;5042759;28;20257;-79
2022/03/29 01:13:13;;;;;;;39.47;16.07;;;;;;;;;;5044847;28;20685;-78
2022/03/29 01:15:40;;;;;;;48.53;18.20;;;;;;;;;;5043787;28;20246;-79
2022/03/29 01:18:07;;;;;;;47.97;17.67;;;;;;;;;;5043060;28;20220;-76
2022/03/29 01:20:37;;;;;;;45.40;17.03;;;;;;;;;;5042427;28;20223;-77
2022/03/29 01:23:06;;;;;;;47.77;18.70;;;;;;;;;;5041332;28;20325;-76
2022/03/29 01:25:34;;;;;;;40.87;17.63;;;;;;;;;;5041972;28;20310;-77
2022/03/29 01:28:02;;;;;;;45.13;18.87;;;;;;;;;;5047846;28;20965;-77
2022/03/29 01:30:30;;;;;;;42.63;17.53;;;;;;;;;;5042940;28;20791;-77
2022/03/29 01:32:58;;;;;;;43.67;18.27;;;;;;;;;;5037546;28;20211;-77
2022/03/29 01:35:26;;;;;;;46.33;18.57;;;;;;;;;;5039525;28;20200;-79
2022/03/29 01:37:54;;;;;;;41.73;17.63;;;;;;;;;;5045493;28;20251;-77
2022/03/29 01:40:23;;;;;;;42.83;17.83;;;;;;;;;;5043673;28;20258;-77
2022/03/29 01:42:51;;;;;;;44.40;18.00;;;;;;;;;;5040217;28;20656;-77
2022/03/29 01:45:19;;;;;;;43.63;18.00;;;;;;;;;;5045642;28;20275;-79
2022/03/29 01:47:47;;;;;;;49.20;17.80;;;;;;;;;;5041463;28;20208;-79
2022/03/29 01:50:14;;;;;;;44.87;18.40;;;;;;;;;;5041395;28;20250;-79
2022/03/29 01:52:42;;;;;;;49.00;17.83;;;;;;;;;;5039474;28;20195;-79
2022/03/29 01:55:10;;;;;;;42.77;16.97;;;;;;;;;;5038025;28;20194;-77
2022/03/29 01:57:42;;;;;;;49.20;17.53;;;;;;;;;;5041202;28;20227;-78
2022/03/29 02:02:56;;;;;;;39.77;16.50;;;;;;;;;;5046015;28;20271;-80
2022/03/29 02:05:24;;;;;;;45.83;18.57;;;;;;;;;;5076274;22;20575;-83
2022/03/29 02:07:54;;;;;;;42.57;17.27;;;;;;;;;;5072737;28;20214;-83
2022/03/29 02:10:24;;;;;;;42.73;16.80;;;;;;;;;;5072683;28;20235;-84
2022/03/29 02:12:53;;;;;;;44.63;16.47;;;;;;;;;;5068590;28;20210;-85
2022/03/29 02:15:20;;;;;;;46.47;18.10;;;;;;;;;;5082751;28;20218;-85
2022/03/29 02:17:49;;;;;;;46.53;16.77;;;;;;;;;;5082490;28;20732;-86
2022/03/29 02:20:16;;;;;;;45.27;18.03;;;;;;;;;;5075874;28;20206;-84
2022/03/29 02:22:44;;;;;;;51.17;19.07;;;;;;;;;;5084661;28;20781;-84
2022/03/29 02:25:12;;;;;;;43.43;17.07;;;;;;;;;;5077334;28;20229;-85
2022/03/29 02:27:42;;;;;;;44.20;18.23;;;;;;;;;;5074292;28;20260;-84
2022/03/29 02:30:14;;;;;;;47.50;17.80;;;;;;;;;;5076892;28;20242;-83
2022/03/29 02:32:41;;;;;;;41.27;16.90;;;;;;;;;;5078463;28;20229;-84
2022/03/29 02:35:09;;;;;;;47.80;17.37;;;;;;;;;;5078875;28;20282;-83
2022/03/29 02:37:37;;;;;;;39.10;17.17;;;;;;;;;;5073229;28;20226;-84
2022/03/29 02:40:05;;;;;;;39.80;17.40;;;;;;;;;;5078612;28;20202;-84
2022/03/29 02:42:32;;;;;;;44.47;16.90;;;;;;;;;;5080140;28;20234;-84
2022/03/29 02:45:00;;;;;;;41.00;17.03;;;;;;;;;;5080293;28;20311;-84
2022/03/29 02:47:29;;;;;;;43.23;16.20;;;;;;;;;;5076373;28;20597;-85
2022/03/29 02:49:57;;;;;;;45.47;18.20;;;;;;;;;;5077732;28;20352;-83
2022/03/29 02:52:24;;;;;;;39.80;17.00;;;;;;;;;;5077426;28;20283;-83
2022/03/29 02:54:51;;;;;;;45.37;18.00;;;;;;;;;;5078542;28;20230;-83
2022/03/29 02:57:18;;;;;;;45.50;18.07;;;;;;;;;;5085299;28;20274;-82
2022/03/29 02:59:46;;;;;;;40.17;16.37;;;;;;;;;;5080783;28;20201;-82
2022/03/29 03:02:13;;;;;;;44.03;17.50;;;;;;;;;;5078203;28;20193;-83
2022/03/29 03:04:42;;;;;;;40.00;16.97;;;;;;;;;;5075503;28;20225;-83
2022/03/29 03:07:10;;;;;;;42.43;17.63;;;;;;;;;;5076906;28;20193;-83
2022/03/29 03:09:39;;;;;;;40.97;17.17;;;;;;;;;;5075762;28;20206;-83
2022/03/29 03:12:07;;;;;;;44.93;17.13;;;;;;;;;;5077388;28;20236;-83
2022/03/29 03:14:34;;;;;;;46.70;16.77;;;;;;;;;;5079286;28;20203;-84
2022/03/29 03:17:02;;;;;;;45.83;16.50;;;;;;;;;;5078079;28;20284;-84
2022/03/29 03:19:29;;;;;;;38.70;16.33;;;;;;;;;;5087119;28;20193;-84
2022/03/29 03:21:57;;;;;;;40.23;16.50;;;;;;;;;;5091858;28;20201;-83
2022/03/29 03:24:25;;;;;;;39.03;16.80;;;;;;;;;;5091264;28;20233;-84
2022/03/29 03:26:52;;;;;;;38.00;15.57;;;;;;;;;;5083346;28;20202;-84
2022/03/29 03:29:20;;;;;;;44.67;17.07;;;;;;;;;;5089327;28;20697;-85
2022/03/29 03:31:47;;;;;;;43.73;16.87;;;;;;;;;;5087516;28;20206;-83
2022/03/29 03:34:15;;;;;;;39.67;16.23;;;;;;;;;;5085398;28;20252;-84
2022/03/29 03:36:42;;;;;;;43.80;16.93;;;;;;;;;;5083072;28;20210;-83
2022/03/29 03:39:13;;;;;;;47.77;18.03;;;;;;;;;;5083071;28;20237;-83
2022/03/29 03:41:41;;;;;;;46.03;18.30;;;;;;;;;;5081858;28;20225;-83
2022/03/29 03:44:09;;;;;;;38.67;16.37;;;;;;;;;;5082447;28;20294;-83
2022/03/29 03:46:36;;;;;;;48.10;17.53;;;;;;;;;;5083391;28;20218;-85
2022/03/29 03:49:03;;;;;;;50.10;19.33;;;;;;;;;;5083378;28;20206;-85
2022/03/29 03:51:32;;;;;;;64.13;17.57;;;;;;;;;;5090940;28;20206;-83
2022/03/29 03:53:59;;;;;;;47.03;17.37;;;;;;;;;;5091108;28;20198;-83
2022/03/29 03:56:30;;;;;;;42.83;16.97;;;;;;;;;;5085040;28;20229;-83
2022/03/29 03:58:57;;;;;;;44.43;17.30;;;;;;;;;;5089514;28;20252;-84
2022/03/29 04:01:25;;;;;;;37.70;15.57;;;;;;;;;;5086743;28;20269;-83
2022/03/29 04:03:52;;;;;;;42.23;16.37;;;;;;;;;;5088513;28;20210;-84
2022/03/29 04:06:22;;;;;;;40.43;17.03;;;;;;;;;;5088986;28;20233;-86
2022/03/29 04:08:50;;;;;;;51.77;18.63;;;;;;;;;;5086856;28;20619;-85
2022/03/29 04:11:17;;;;;;;45.07;17.90;;;;;;;;;;5081849;28;20568;-84
2022/03/29 04:13:48;;;;;;;46.77;17.33;;;;;;;;;;5076808;28;20206;-83
2022/03/29 04:16:16;;;;;;;54.83;17.80;;;;;;;;;;5074704;28;20229;-85
2022/03/29 04:18:43;;;;;;;43.63;17.30;;;;;;;;;;5081053;28;20222;-84
2022/03/29 04:21:11;;;;;;;47.40;18.13;;;;;;;;;;5074839;28;20206;-83
2022/03/29 04:23:38;;;;;;;43.87;17.40;;;;;;;;;;5082804;28;20205;-84
2022/03/29 04:26:06;;;;;;;43.47;17.93;;;;;;;;;;5074968;28;20243;-82
2022/03/29 04:28:34;;;;;;;44.97;18.07;;;;;;;;;;5088678;28;20210;-83
2022/03/29 04:31:02;;;;;;;51.90;20.30;;;;;;;;;;5077209;28;20222;-83
2022/03/29 04:33:30;;;;;;;49.80;18.60;;;;;;;;;;5088010;28;20285;-84
2022/03/29 04:35:58;;;;;;;43.73;17.17;;;;;;;;;;5073777;28;20297;-85
2022/03/29 04:38:25;;;;;;;42.17;18.13;;;;;;;;;;5075571;28;20249;-85
2022/03/29 04:40:53;;;;;;;52.30;19.03;;;;;;;;;;5071362;28;20862;-85
2022/03/29 04:43:20;;;;;;;52.53;19.90;;;;;;;;;;5077457;28;20225;-84
2022/03/29 04:45:48;;;;;;;48.17;18.67;;;;;;;;;;5071560;28;20218;-85
2022/03/29 04:48:16;;;;;;;47.27;18.97;;;;;;;;;;5083749;28;20206;-85
2022/03/29 04:50:44;;;;;;;43.63;17.87;;;;;;;;;;5075130;28;20229;-85
2022/03/29 04:53:13;;;;;;;42.60;17.80;;;;;;;;;;5073466;28;21122;-86
2022/03/29 04:55:40;;;;;;;46.30;17.77;;;;;;;;;;5084608;28;20286;-85
2022/03/29 04:58:08;;;;;;;45.80;17.57;;;;;;;;;;5075519;28;20255;-84
2022/03/29 05:00:35;;;;;;;48.13;17.83;;;;;;;;;;5077122;28;20207;-83
2022/03/29 05:03:02;;;;;;;44.57;18.20;;;;;;;;;;5077407;28;20221;-84
2022/03/29 05:05:31;;;;;;;47.13;18.30;;;;;;;;;;5076596;28;20262;-84
2022/03/29 05:07:59;;;;;;;44.80;18.47;;;;;;;;;;5075570;28;20220;-84
2022/03/29 05:10:30;;;;;;;47.00;18.30;;;;;;;;;;5079105;28;20665;-85
2022/03/29 05:13:02;;;;;;;51.20;18.53;;;;;;;;;;5074637;28;20704;-86
2022/03/29 05:15:31;;;;;;;52.10;20.30;;;;;;;;;;5067997;28;20666;-84
2022/03/29 05:18:01;;;;;;;46.77;19.27;;;;;;;;;;5072018;28;20234;-84
2022/03/29 05:20:28;;;;;;;55.80;17.93;;;;;;;;;;5073793;28;20589;-84
2022/03/29 05:23:00;;;;;;;48.90;17.83;;;;;;;;;;5076269;28;20202;-83
2022/03/29 05:25:27;;;;;;;50.10;18.30;;;;;;;;;;5070914;28;20233;-84
2022/03/29 05:27:57;;;;;;;48.97;19.27;;;;;;;;;;5072403;28;20205;-84
2022/03/29 05:30:25;;;;;;;46.00;17.93;;;;;;;;;;5079927;28;20194;-85
2022/03/29 05:32:57;;;;;;;55.87;20.03;;;;;;;;;;5067012;28;20218;-84
2022/03/29 05:35:26;;;;;;;61.63;19.20;;;;;;;;;;5077793;28;20221;-85
2022/03/29 05:37:54;;;;;;;50.93;18.00;;;;;;;;;;5077858;28;20313;-86
2022/03/29 05:40:22;;;;;;;57.80;19.77;;;;;;;;;;5080097;28;20217;-86
2022/03/29 05:42:49;;;;;;;55.60;19.27;;;;;;;;;;5080732;28;20213;-85
2022/03/29 05:45:17;;;;;;;47.43;18.87;;;;;;;;;;5084403;28;20643;-87
2022/03/29 05:50:29;;;;;;;58.60;20.33;;;;;;;;;;5075678;28;20197;-85
2022/03/29 05:53:04;;;;;;;63.47;20.53;;;;;;;;;;5075776;28;20206;-85
2022/03/29 05:55:33;;;;;;;59.57;20.17;;;;;;;;;;5076376;28;20293;-85
2022/03/29 05:58:02;;;;;;;54.83;20.20;;;;;;;;;;5072023;28;20222;-84
2022/03/29 06:00:32;;;;;;;54.17;19.67;;;;;;;;;;5072171;28;20738;-84
2022/03/29 06:02:59;;;;;;;53.03;19.73;;;;;;;;;;5077276;28;20227;-85
2022/03/29 06:05:27;;;;;;;56.23;21.00;;;;;;;;;;5077531;28;20234;-84
2022/03/29 06:07:56;;;;;;;55.07;20.80;;;;;;;;;;5076499;28;20194;-84
2022/03/29 06:10:23;;;;;;;54.80;21.90;;;;;;;;;;5076986;28;20645;-86
2022/03/29 06:12:52;;;;;;;51.53;19.43;;;;;;;;;;5080486;28;20578;-86
2022/03/29 06:15:19;;;;;;;63.57;20.90;;;;;;;;;;5082414;28;20253;-85
2022/03/29 06:17:46;;;;;;;52.10;20.77;;;;;;;;;;5081236;28;20206;-84
2022/03/29 06:20:14;;;;;;;51.97;20.00;;;;;;;;;;5077222;28;20294;-85
2022/03/29 06:22:44;;;;;;;54.80;20.30;;;;;;;;;;5080893;28;20214;-85
2022/03/29 06:25:12;;;;;;;52.27;20.63;;;;;;;;;;5079767;28;20710;-84
2022/03/29 06:27:39;;;;;;;56.37;20.93;;;;;;;;;;5078447;28;20576;-85
2022/03/29 06:30:09;;;;;;;52.93;21.27;;;;;;;;;;5083490;28;20232;-85
2022/03/29 06:32:45;;;;;;;63.07;21.63;;;;;;;;;;5073538;28;20303;-85
2022/03/29 06:35:12;;;;;;;56.80;19.97;;;;;;;;;;5073572;28;20221;-85
2022/03/29 06:37:40;;;;;;;54.57;20.60;;;;;;;;;;5076092;28;20230;-85
2022/03/29 06:40:08;;;;;;;49.27;19.73;;;;;;;;;;5083446;28;20260;-86
2022/03/29 06:42:36;;;;;;;61.03;20.50;;;;;;;;;;5077418;28;20663;-85
2022/03/29 06:45:03;;;;;;;53.33;21.17;;;;;;;;;;5079126;28;20218;-86
2022/03/29 06:47:33;;;;;;;53.30;20.77;;;;;;;;;;5082545;28;20238;-87
2022/03/29 06:50:01;;;;;;;59.33;21.33;;;;;;;;;;5078565;28;20194;-87
2022/03/29 06:52:29;;;;;;;59.83;21.63;;;;;;;;;;5071394;28;20217;-85
2022/03/29 06:54:57;;;;;;;55.03;21.27;;;;;;;;;;5088916;28;20233;-86
2022/03/29 06:57:25;;;;;;;56.90;21.23;;;;;;;;;;5075665;28;20206;-87
2022/03/29 06:59:52;;;;;;;52.87;21.37;;;;;;;;;;5083259;28;20306;-85
2022/03/29 07:02:19;;;;;;;56.13;21.53;;;;;;;;;;5083422;28;20583;-84
2022/03/29 07:04:48;;;;;;;53.03;21.23;;;;;;;;;;5084976;28;20248;-85
2022/03/29 07:07:17;;;;;;;56.87;21.77;;;;;;;;;;5068389;28;20262;-85
2022/03/29 07:12:31;;;;;;;53.30;22.13;;;;;;;;;;5074398;28;20205;-86
2022/03/29 07:14:58;;;;;;;50.77;21.00;;;;;;;;;;5080164;28;20261;-86
2022/03/29 07:17:28;;;;;;;62.00;22.53;;;;;;;;;;5079611;28;20273;-85
2022/03/29 07:19:56;;;;;;;59.50;22.47;;;;;;;;;;5082546;28;20278;-86
2022/03/29 07:22:25;;;;;;;60.87;21.70;;;;;;;;;;5075772;28;20286;-86
2022/03/29 07:24:53;;;;;;;61.30;22.57;;;;;;;;;;5082690;28;20282;-84
2022/03/29 07:27:20;;;;;;;56.97;23.23;;;;;;;;;;5077261;28;20222;-84
2022/03/29 07:29:49;;;;;;;56.10;22.97;;;;;;;;;;5087410;28;20256;-86
2022/03/29 07:32:16;;;;;;;61.00;23.87;;;;;;;;;;5084814;28;20642;-87
2022/03/29 07:34:43;;;;;;;66.80;24.00;;;;;;;;;;5084639;28;20258;-85
2022/03/29 07:37:13;;;;;;;61.67;25.60;;;;;;;;;;5082542;28;20209;-84
2022/03/29 07:39:41;;;;;;;58.87;24.57;;;;;;;;;;5083467;28;20267;-85
2022/03/29 07:42:09;;;;;;;63.67;23.47;;;;;;;;;;5080456;28;20210;-85
2022/03/29 07:44:37;;;;;;;61.67;24.60;;;;;;;;;;5086667;28;20319;-85
2022/03/29 07:47:05;;;;;;;60.20;25.17;;;;;;;;;;5083624;28;20209;-84
2022/03/29 07:49:33;;;;;;;54.70;23.87;;;;;;;;;;5085718;28;20226;-84
2022/03/29 07:52:00;;;;;;;56.77;24.57;;;;;;;;;;5083348;28;20228;-84
2022/03/29 07:54:29;;;;;;;59.33;25.03;;;;;;;;;;5084185;28;20197;-86
2022/03/29 07:56:57;;;;;;;57.63;24.37;;;;;;;;;;5085686;28;20230;-85
2022/03/29 07:59:25;;;;;;;56.97;23.77;;;;;;;;;;5081743;28;20217;-85
2022/03/29 08:01:52;;;;;;;58.83;24.43;;;;;;;;;;5084506;28;20205;-85
2022/03/29 08:04:21;;;;;;;60.07;24.00;;;;;;;;;;5087873;28;20209;-85
2022/03/29 08:06:48;;;;;;;57.93;23.60;;;;;;;;;;5062355;22;20227;-80
2022/03/29 08:09:15;;;;;;;52.00;22.43;;;;;;;;;;5049550;28;20231;-81
2022/03/29 08:11:44;;;;;;;52.07;24.03;;;;;;;;;;5050047;28;20206;-80
2022/03/29 08:14:12;;;;;;;47.50;20.97;;;;;;;;;;5052785;28;20227;-80
2022/03/29 08:16:40;;;;;;;51.07;21.67;;;;;;;;;;5051825;28;20221;-81
2022/03/29 08:19:07;;;;;;;53.80;22.37;;;;;;;;;;5050267;28;20227;-81
2022/03/29 08:21:50;;;;;;;49.17;21.07;;;;;;;;;;5052781;28;20203;-80
2022/03/29 08:24:18;;;;;;;50.53;20.70;;;;;;;;;;5056451;28;20195;-80
2022/03/29 08:26:47;;;;;;;43.90;19.63;;;;;;;;;;5058464;28;20202;-80
2022/03/29 08:29:15;;;;;;;44.63;19.33;;;;;;;;;;5063963;28;20226;-81
2022/03/29 08:31:42;;;;;;;44.03;18.37;;;;;;;;;;5053301;28;20203;-81
2022/03/29 08:34:10;;;;;;;40.87;19.00;;;;;;;;;;5048683;28;20236;-80
2022/03/29 08:36:38;;;;;;;41.37;18.37;;;;;;;;;;5046373;28;20620;-80
2022/03/29 08:39:05;;;;;;;39.57;19.13;;;;;;;;;;5054077;28;20234;-80
2022/03/29 08:41:37;;;;;;;34.53;17.17;;;;;;;;;;5047650;28;20211;-81
2022/03/29 08:44:06;;;;;;;33.37;16.60;;;;;;;;;;5051387;28;20230;-81
2022/03/29 08:46:35;;;;;;;32.30;16.43;;;;;;;;;;5052107;28;20664;-80
2022/03/29 08:49:03;;;;;;;39.17;16.03;;;;;;;;;;5052303;28;20220;-81
2022/03/29 08:51:31;;;;;;;39.13;16.27;;;;;;;;;;5054430;28;20211;-81
2022/03/29 08:53:58;;;;;;;35.43;14.77;;;;;;;;;;5049827;28;20637;-79
2022/03/29 08:56:26;;;;;;;29.20;12.70;;;;;;;;;;5049601;28;20292;-81
2022/03/29 08:58:53;;;;;;;27.80;14.47;;;;;;;;;;5045885;28;20233;-81
2022/03/29 09:01:23;;;;;;;29.10;13.40;;;;;;;;;;5042996;28;20213;-80
2022/03/29 09:04:05;;;;;;;27.90;12.63;;;;;;;;;;5044469;28;20302;-81
2022/03/29 09:06:32;;;;;;;27.37;12.90;;;;;;;;;;5041880;28;20215;-79
2022/03/29 09:09:00;;;;;;;24.50;12.07;;;;;;;;;;5040375;28;20223;-78
2022/03/29 09:11:40;;;;;;;21.57;10.67;;;;;;;;;;5037593;28;20207;-77
2022/03/29 09:14:07;;;;;;;19.10;10.33;;;;;;;;;;5041881;28;20272;-77
2022/03/29 09:16:36;;;;;;;18.67;9.07;;;;;;;;;;5038828;28;20242;-77
2022/03/29 09:19:03;;;;;;;20.87;8.10;;;;;;;;;;5037118;28;20226;-77
2022/03/29 09:21:40;;;;;;;17.67;8.70;;;;;;;;;;5039151;28;20257;-78
2022/03/29 09:24:08;;;;;;;19.97;9.00;;;;;;;;;;5036547;28;20257;-78
2022/03/29 09:26:38;;;;;;;21.70;9.70;;;;;;;;;;5037578;28;20207;-78
2022/03/29 09:29:13;;;;;;;20.70;9.03;;;;;;;;;;5038107;28;20257;-77
2022/03/29 09:31:41;;;;;;;18.83;8.70;;;;;;;;;;5040497;28;20214;-77
2022/03/29 09:34:12;;;;;;;16.77;8.17;;;;;;;;;;5037532;28;20634;-78
2022/03/29 09:36:43;;;;;;;22.73;9.13;;;;;;;;;;5037264;28;20222;-77
2022/03/29 09:39:11;;;;;;;19.47;8.80;;;;;;;;;;5039003;28;20879;-78
2022/03/29 09:41:41;;;;;;;19.33;9.50;;;;;;;;;;5040665;28;20199;-79
2022/03/29 09:44:09;;;;;;;18.27;8.87;;;;;;;;;;5034825;28;20203;-78
2022/03/29 09:46:51;;;;;;;19.67;9.03;;;;;;;;;;5042010;28;20685;-78
2022/03/29 09:49:21;;;;;;;15.73;7.47;;;;;;;;;;5036385;28;20223;-78
2022/03/29 09:51:48;;;;;;;14.47;6.97;;;;;;;;;;5040419;28;20229;-78
2022/03/29 09:54:15;;;;;;;19.20;7.40;;;;;;;;;;5037473;28;20206;-78
2022/03/29 09:56:51;;;;;;;13.87;7.30;;;;;;;;;;5040030;28;20211;-78
2022/03/29 09:59:18;;;;;;;16.43;7.50;;;;;;;;;;5033912;28;20636;-77
2022/03/29 10:01:52;;;;;;;20.60;7.70;;;;;;;;;;5036208;28;20226;-77
2022/03/29 10:04:22;;;;;;;18.63;6.70;;;;;;;;;;5035369;28;20214;-77
2022/03/29 10:06:50;;;;;;;15.63;6.70;;;;;;;;;;5036595;28;20665;-78
2022/03/29 10:09:26;;;;;;;16.97;6.40;;;;;;;;;;5039627;28;20680;-78
2022/03/29 10:11:55;;;;;;;12.80;5.77;;;;;;;;;;5037992;28;20203;-78
2022/03/29 10:14:25;;;;;;;11.57;5.67;;;;;;;;;;5037495;28;20227;-78
2022/03/29 10:16:53;;;;;;;11.10;5.33;;;;;;;;;;5038474;28;20723;-77
2022/03/29 10:19:21;;;;;;;15.07;6.13;;;;;;;;;;5040897;28;20234;-77
2022/03/29 10:21:50;;;;;;;11.83;5.80;;;;;;;;;;5036560;28;20737;-78
2022/03/29 10:24:19;;;;;;;14.67;6.13;;;;;;;;;;5038622;28;20203;-78
2022/03/29 10:26:48;;;;;;;13.53;4.47;;;;;;;;;;5038017;28;20235;-78
2022/03/29 10:29:16;;;;;;;12.40;4.60;;;;;;;;;;5031247;28;20279;-77
2022/03/29 10:31:50;;;;;;;14.13;5.23;;;;;;;;;;5037681;28;20328;-78
2022/03/29 10:34:19;;;;;;;12.07;4.43;;;;;;;;;;5036804;28;20587;-79
2022/03/29 10:37:05;;;;;;;11.10;4.20;;;;;;;;;;5036958;28;20306;-78
2022/03/29 10:39:42;;;;;;;9.37;4.07;;;;;;;;;;5038756;28;20254;-78
2022/03/29 10:42:25;;;;;;;9.27;4.23;;;;;;;;;;5043167;28;20217;-78
2022/03/29 10:44:59;;;;;;;11.23;3.80;;;;;;;;;;5037598;28;20565;-78
2022/03/29 10:47:27;;;;;;;10.83;3.97;;;;;;;;;;5040337;28;20791;-78
2022/03/29 10:49:54;;;;;;;6.07;3.80;;;;;;;;;;5040582;28;20306;-79
2022/03/29 10:52:38;;;;;;;10.77;4.10;;;;;;;;;;5037958;28;20233;-78
2022/03/29 10:55:20;;;;;;;6.73;3.47;;;;;;;;;;5039945;28;21102;-77
2022/03/29 10:58:07;;;;;;;6.83;3.63;;;;;;;;;;5037127;28;20211;-77
2022/03/29 11:00:35;;;;;;;8.47;3.70;;;;;;;;;;5035478;28;20241;-76
2022/03/29 11:03:21;;;;;;;5.77;3.50;;;;;;;;;;5035943;28;20285;-78
2022/03/29 11:06:07;;;;;;;7.37;3.87;;;;;;;;;;5038773;28;20652;-79
2022/03/29 11:08:36;;;;;;;8.53;3.50;;;;;;;;;;5041113;28;20673;-79
2022/03/29 11:11:04;;;;;;;7.37;3.33;;;;;;;;;;5039686;28;20206;-79
2022/03/29 11:13:37;;;;;;;7.03;3.13;;;;;;;;;;5038418;28;20226;-80
2022/03/29 11:16:29;;;;;;;5.10;2.97;;;;;;;;;;5043955;28;20582;-79
2022/03/29 11:18:57;;;;;;;7.43;3.47;;;;;;;;;;5041380;28;20227;-79
2022/03/29 11:21:37;;;;;;;8.83;3.20;;;;;;;;;;5036567;28;20789;-78
2022/03/29 11:24:07;;;;;;;5.43;2.87;;;;;;;;;;5037185;28;20222;-78
2022/03/29 11:26:35;;;;;;;6.47;2.73;;;;;;;;;;5042850;28;20294;-78
2022/03/29 11:29:03;;;;;;;7.10;2.97;;;;;;;;;;5037631;28;20239;-77
2022/03/29 11:31:34;;;;;;;8.97;2.97;;;;;;;;;;5035541;28;20587;-77
2022/03/29 11:34:02;;;;;;;11.30;2.87;;;;;;;;;;5039069;28;20232;-78
2022/03/29 11:36:30;;;;;;;5.53;3.10;;;;;;;;;;5036881;28;20340;-79
2022/03/29 11:38:58;;;;;;;5.87;2.87;;;;;;;;;;5037525;28;20219;-76
2022/03/29 11:41:28;;;;;;;6.23;2.87;;;;;;;;;;5036797;28;20771;-77
2022/03/29 11:43:56;;;;;;;5.37;2.63;;;;;;;;;;5035212;28;20203;-78
2022/03/29 11:46:24;;;;;;;6.63;2.80;;;;;;;;;;5036559;28;20571;-79
2022/03/29 11:48:52;;;;;;;6.63;3.20;;;;;;;;;;5043370;28;20301;-77
2022/03/29 11:51:22;;;;;;;6.03;2.90;;;;;;;;;;5039917;28;20200;-77
2022/03/29 11:53:58;;;;;;;7.80;3.30;;;;;;;;;;5039344;28;20203;-76
2022/03/29 11:56:27;;;;;;;5.33;2.93;;;;;;;;;;5043222;28;20604;-78
2022/03/29 11:58:55;;;;;;;5.40;2.57;;;;;;;;;;5045203;28;20250;-77
2022/03/29 12:01:27;;;;;;;4.37;2.47;;;;;;;;;;5044186;28;20245;-78
2022/03/29 12:03:57;;;;;;;5.80;2.80;;;;;;;;;;5047963;28;20222;-78
2022/03/29 12:06:25;;;;;;;5.50;2.70;;;;;;;;;;5040852;28;20216;-79
2022/03/29 12:08:54;;;;;;;5.97;2.70;;;;;;;;;;5052161;28;20235;-78
2022/03/29 12:11:23;;;;;;;6.13;2.30;;;;;;;;;;5053180;28;20222;-79
2022/03/29 12:14:02;;;;;;;5.73;2.63;;;;;;;;;;5044379;28;20253;-80
2022/03/29 12:16:30;;;;;;;5.40;2.70;;;;;;;;;;5038332;28;20207;-79
2022/03/29 12:18:58;;;;;;;5.40;2.60;;;;;;;;;;5043186;28;20235;-78
2022/03/29 12:21:26;;;;;;;6.20;2.60;;;;;;;;;;5036585;28;20737;-78
2022/03/29 12:24:00;;;;;;;5.53;2.47;;;;;;;;;;5035502;28;20207;-78
2022/03/29 12:26:29;;;;;;;7.20;2.57;;;;;;;;;;5041839;28;20268;-78
2022/03/29 12:28:58;;;;;;;5.33;2.83;;;;;;;;;;5040340;28;20222;-77
2022/03/29 12:31:27;;;;;;;6.33;3.17;;;;;;;;;;5040514;28;20195;-78
2022/03/29 12:33:55;;;;;;;11.00;3.30;;;;;;;;;;5043284;28;20204;-77
2022/03/29 12:36:24;;;;;;;5.97;3.10;;;;;;;;;;5044683;28;20623;-78
2022/03/29 12:38:52;;;;;;;6.30;3.17;;;;;;;;;;5039615;28;20278;-78
2022/03/29 12:41:32;;;;;;;6.37;2.60;;;;;;;;;;5041796;28;20310;-78
2022/03/29 12:44:01;;;;;;;6.73;3.00;;;;;;;;;;5040369;28;20249;-79
2022/03/29 12:46:30;;;;;;;8.63;3.50;;;;;;;;;;5039405;28;20576;-78
2022/03/29 12:48:58;;;;;;;9.67;3.50;;;;;;;;;;5043145;28;20305;-80
2022/03/29 12:51:29;;;;;;;9.80;3.40;;;;;;;;;;5038964;28;20203;-79
2022/03/29 12:53:57;;;;;;;7.23;3.27;;;;;;;;;;5044030;28;20203;-79
2022/03/29 12:56:31;;;;;;;9.83;3.03;;;;;;;;;;5035200;28;20231;-76
2022/03/29 12:58:59;;;;;;;19.40;3.73;;;;;;;;;;5034988;28;20763;-77
2022/03/29 13:01:28;;;;;;;7.67;3.40;;;;;;;;;;5037641;28;20236;-78
2022/03/29 13:04:24;;;;;;;7.80;3.10;;;;;;;;;;5047063;28;20297;-81
2022/03/29 13:06:54;;;;;;;12.67;3.10;;;;;;;;;;5041651;28;20284;-78
2022/03/29 13:09:21;;;;;;;11.47;3.67;;;;;;;;;;5033230;28;20603;-78
2022/03/29 13:11:48;;;;;;;7.13;3.10;;;;;;;;;;5037813;28;20282;-78
2022/03/29 13:14:15;;;;;;;6.07;2.80;;;;;;;;;;5039825;28;20207;-79
2022/03/29 13:16:52;;;;;;;6.40;3.00;;;;;;;;;;5045295;28;20628;-80
2022/03/29 13:19:20;;;;;;;9.43;3.03;;;;;;;;;;5049847;28;20237;-80
2022/03/29 13:21:47;;;;;;;10.27;2.60;;;;;;;;;;5047340;28;20252;-80
2022/03/29 13:24:16;;;;;;;5.00;2.60;;;;;;;;;;5044535;28;20210;-80
2022/03/29 13:26:44;;;;;;;6.93;2.70;;;;;;;;;;5046742;28;20202;-80
2022/03/29 13:29:13;;;;;;;5.83;2.90;;;;;;;;;;5049600;28;20533;-80
2022/03/29 13:31:41;;;;;;;6.80;2.97;;;;;;;;;;5055128;28;20209;-79
2022/03/29 13:34:10;;;;;;;8.60;2.47;;;;;;;;;;5040524;28;20207;-79
2022/03/29 13:36:38;;;;;;;10.07;3.43;;;;;;;;;;5045882;28;20203;-81
2022/03/29 13:39:07;;;;;;;4.67;2.60;;;;;;;;;;5045696;28;20295;-80
2022/03/29 13:41:34;;;;;;;6.80;3.30;;;;;;;;;;5044149;28;20227;-81
2022/03/29 13:44:01;;;;;;;7.07;3.50;;;;;;;;;;5047080;28;20206;-80
2022/03/29 13:46:28;;;;;;;6.03;2.93;;;;;;;;;;5044942;28;20266;-80
2022/03/29 13:48:56;;;;;;;9.27;3.47;;;;;;;;;;5043005;28;20249;-80
2022/03/29 13:51:25;;;;;;;5.83;3.30;;;;;;;;;;5043557;28;20317;-80
2022/03/29 13:53:52;;;;;;;5.67;3.27;;;;;;;;;;5044363;28;20724;-80
2022/03/29 13:56:21;;;;;;;7.40;2.60;;;;;;;;;;5047452;28;20253;-80
2022/03/29 13:58:48;;;;;;;9.10;2.90;;;;;;;;;;5048486;28;20239;-79
2022/03/29 14:01:15;;;;;;;6.63;2.83;;;;;;;;;;5048251;28;20223;-79
2022/03/29 14:03:43;;;;;;;10.00;3.73;;;;;;;;;;5048003;28;20207;-80
2022/03/29 14:06:10;;;;;;;7.40;3.37;;;;;;;;;;5048886;22;20599;-78
2022/03/29 14:08:39;;;;;;;4.80;2.77;;;;;;;;;;5015067;28;20318;-78
2022/03/29 14:11:06;;;;;;;8.10;3.27;;;;;;;;;;5027334;28;20227;-78
2022/03/29 14:13:34;;;;;;;5.63;2.70;;;;;;;;;;5025727;28;20639;-78
2022/03/29 14:16:01;;;;;;;7.83;3.00;;;;;;;;;;5025112;28;20214;-78
2022/03/29 14:18:29;;;;;;;5.90;2.30;;;;;;;;;;5026544;28;20234;-79
2022/03/29 14:20:58;;;;;;;3.60;2.43;;;;;;;;;;5023419;28;20220;-79
2022/03/29 14:23:26;;;;;;;6.37;2.67;;;;;;;;;;5020746;28;20290;-79
2022/03/29 14:25:54;;;;;;;6.83;2.97;;;;;;;;;;5023333;28;20270;-78
2022/03/29 14:28:22;;;;;;;6.70;2.70;;;;;;;;;;5019389;28;20200;-78
2022/03/29 14:30:50;;;;;;;9.93;3.37;;;;;;;;;;5023070;28;20191;-77
2022/03/29 14:33:17;;;;;;;7.87;3.07;;;;;;;;;;5021819;28;20204;-76
2022/03/29 14:35:46;;;;;;;8.40;2.60;;;;;;;;;;5019898;28;20678;-77
2022/03/29 14:38:14;;;;;;;4.30;2.50;;;;;;;;;;5021865;28;20211;-79
2022/03/29 14:40:41;;;;;;;6.30;2.73;;;;;;;;;;5019119;28;20230;-79
2022/03/29 14:43:09;;;;;;;5.57;2.87;;;;;;;;;;5026943;28;20581;-80
2022/03/29 14:45:37;;;;;;;5.57;2.80;;;;;;;;;;5018548;28;20212;-77